createdAt,value
2023-01-30T00:00:33.935Z,35.71
2023-01-30T00:01:33.924Z,37.88
2023-01-30T00:02:34.783Z,35.89
2023-01-30T00:03:33.806Z,35.84
2023-01-30T00:54:54.332Z,25.00
2023-01-30T00:55:55.295Z,25.00
2023-01-30T00:56:55.274Z,25.00
2023-01-30T00:57:55.248Z,25.00
2023-01-30T00:58:55.217Z,25.00
2023-01-30T00:59:55.186Z,25.00
2023-01-30T01:00:55.170Z,0.00
2023-01-30T01:01:55.179Z,0.00
2023-01-30T01:02:55.109Z,0.00
2023-01-30T01:03:55.073Z,0.00
2023-01-30T01:04:55.050Z,0.00
2023-01-30T01:05:55.027Z,0.00
2023-01-30T01:06:55.006Z,12.75
2023-01-30T01:07:54.991Z,25.48
2023-01-30T01:08:54.966Z,25.00
2023-01-30T01:09:54.951Z,25.00
2023-01-30T01:10:54.923Z,25.00
2023-01-30T01:11:54.876Z,25.44
2023-01-30T01:12:54.852Z,25.00
2023-01-30T01:13:54.889Z,25.00
2023-01-30T01:14:54.819Z,25.85
2023-01-30T01:15:54.816Z,25.15
2023-01-30T01:16:54.772Z,25.32
2023-01-30T01:17:54.759Z,25.00
2023-01-30T01:18:54.742Z,25.00
2023-01-30T01:19:54.700Z,25.00
2023-01-30T01:20:54.672Z,25.00
2023-01-30T01:21:54.657Z,26.01
2023-01-30T01:22:54.634Z,26.97
2023-01-30T01:23:54.614Z,26.53
2023-01-30T01:24:54.579Z,26.71
2023-01-30T01:25:54.556Z,25.44
2023-01-30T01:26:54.520Z,25.75
2023-01-30T01:27:54.485Z,25.63
2023-01-30T01:28:54.454Z,25.63
2023-01-30T01:29:54.431Z,26.12
2023-01-30T01:30:54.428Z,26.99
2023-01-30T01:31:54.437Z,25.71
2023-01-30T01:32:54.357Z,27.43
2023-01-30T01:33:54.319Z,25.72
2023-01-30T01:34:54.294Z,25.92
2023-01-30T01:35:54.288Z,27.59
2023-01-30T01:36:54.922Z,26.57
2023-01-30T01:37:54.246Z,26.08
2023-01-30T01:38:54.202Z,26.37
2023-01-30T01:39:54.179Z,27.94
2023-01-30T01:40:54.167Z,26.70
2023-01-30T01:41:54.129Z,25.39
2023-01-30T01:42:54.097Z,25.29
2023-01-30T01:43:54.073Z,26.12
2023-01-30T01:44:54.054Z,27.31
2023-01-30T01:45:54.031Z,25.76
2023-01-30T01:46:53.989Z,25.00
2023-01-30T01:47:53.969Z,25.89
2023-01-30T01:48:53.943Z,25.52
2023-01-30T01:49:53.917Z,27.47
2023-01-30T01:50:53.902Z,27.36
2023-01-30T01:51:53.887Z,26.33
2023-01-30T01:52:53.865Z,25.00
2023-01-30T01:53:53.840Z,25.38
2023-01-30T01:54:53.815Z,26.30
2023-01-30T01:55:53.808Z,26.42
2023-01-30T01:56:53.793Z,27.91
2023-01-30T01:57:53.765Z,26.04
2023-01-30T01:58:53.759Z,28.16
2023-01-30T01:59:53.729Z,26.77
2023-01-30T02:00:53.769Z,26.78
2023-01-30T02:01:53.851Z,25.38
2023-01-30T02:02:53.707Z,27.85
2023-01-30T02:03:53.655Z,28.61
2023-01-30T02:04:53.634Z,27.83
2023-01-30T02:05:53.612Z,27.50
2023-01-30T02:06:53.588Z,25.86
2023-01-30T02:07:53.553Z,28.55
2023-01-30T02:08:53.534Z,27.37
2023-01-30T02:09:53.511Z,28.39
2023-01-30T02:10:53.493Z,27.22
2023-01-30T02:11:53.475Z,27.27
2023-01-30T02:12:53.442Z,28.63
2023-01-30T02:13:53.461Z,26.95
2023-01-30T02:14:53.405Z,26.49
2023-01-30T02:15:53.392Z,28.14
2023-01-30T02:16:53.394Z,27.48
2023-01-30T02:17:53.525Z,27.28
2023-01-30T02:18:53.297Z,26.19
2023-01-30T02:19:53.288Z,26.95
2023-01-30T02:20:53.261Z,27.28
2023-01-30T02:21:53.218Z,27.50
2023-01-30T02:22:53.219Z,29.34
2023-01-30T02:23:53.186Z,26.56
2023-01-30T02:24:53.164Z,26.25
2023-01-30T02:25:54.521Z,27.81
2023-01-30T02:26:53.126Z,29.65
2023-01-30T02:27:53.078Z,28.61
2023-01-30T02:28:53.056Z,28.39
2023-01-30T02:29:53.025Z,25.88
2023-01-30T02:30:53.123Z,29.07
2023-01-30T02:31:52.972Z,26.47
2023-01-30T02:32:52.958Z,26.06
2023-01-30T02:33:52.932Z,27.56
2023-01-30T02:34:52.915Z,25.75
2023-01-30T02:35:52.904Z,28.93
2023-01-30T02:36:52.865Z,27.77
2023-01-30T02:37:52.839Z,26.27
2023-01-30T02:38:52.812Z,27.26
2023-01-30T02:39:52.791Z,27.85
2023-01-30T02:40:52.768Z,26.96
2023-01-30T02:41:52.806Z,28.84
2023-01-30T02:42:52.712Z,27.17
2023-01-30T02:43:52.673Z,27.44
2023-01-30T02:44:52.653Z,27.14
2023-01-30T02:45:52.647Z,28.34
2023-01-30T02:46:52.623Z,26.41
2023-01-30T02:47:52.595Z,28.74
2023-01-30T02:48:52.570Z,27.59
2023-01-30T02:49:52.545Z,27.78
2023-01-30T02:50:52.533Z,27.83
2023-01-30T02:51:52.509Z,28.68
2023-01-30T02:52:52.493Z,28.79
2023-01-30T02:53:52.461Z,28.89
2023-01-30T02:54:52.427Z,25.51
2023-01-30T02:55:52.387Z,26.73
2023-01-30T02:56:52.388Z,26.98
2023-01-30T02:57:52.342Z,30.27
2023-01-30T02:58:52.309Z,28.10
2023-01-30T02:59:52.278Z,28.96
2023-01-30T03:00:52.254Z,28.52
2023-01-30T03:01:52.226Z,28.13
2023-01-30T03:02:52.431Z,29.25
2023-01-30T03:03:52.185Z,29.56
2023-01-30T03:04:52.171Z,29.89
2023-01-30T03:05:52.124Z,28.59
2023-01-30T03:06:52.110Z,28.88
2023-01-30T03:07:52.075Z,28.00
2023-01-30T03:08:52.050Z,29.50
2023-01-30T03:09:52.025Z,27.72
2023-01-30T03:10:52.024Z,27.75
2023-01-30T03:11:51.978Z,28.45
2023-01-30T03:12:51.953Z,28.84
2023-01-30T03:13:51.937Z,29.45
2023-01-30T03:14:51.927Z,28.54
2023-01-30T03:15:51.955Z,30.88
2023-01-30T03:16:51.919Z,29.93
2023-01-30T03:17:51.858Z,29.77
2023-01-30T03:18:51.845Z,28.97
2023-01-30T03:19:51.827Z,27.77
2023-01-30T03:20:51.810Z,29.31
2023-01-30T03:21:51.796Z,28.40
2023-01-30T03:22:51.807Z,29.50
2023-01-30T03:23:51.767Z,30.78
2023-01-30T03:24:51.760Z,32.41
2023-01-30T03:25:51.738Z,29.89
2023-01-30T03:26:51.753Z,29.46
2023-01-30T03:27:51.721Z,28.64
2023-01-30T03:28:51.687Z,29.32
2023-01-30T03:29:51.685Z,28.74
2023-01-30T03:30:51.783Z,30.56
2023-01-30T03:31:51.734Z,28.94
2023-01-30T03:32:51.648Z,30.60
2023-01-30T03:33:51.623Z,31.15
2023-01-30T03:34:51.602Z,27.98
2023-01-30T03:35:51.587Z,30.65
2023-01-30T03:36:51.577Z,30.27
2023-01-30T03:37:51.546Z,32.12
2023-01-30T03:38:51.511Z,30.08
2023-01-30T03:39:51.494Z,31.32
2023-01-30T03:40:51.464Z,31.55
2023-01-30T03:41:51.447Z,31.07
2023-01-30T03:42:51.424Z,30.59
2023-01-30T03:43:51.408Z,31.25
2023-01-30T03:44:51.397Z,29.69
2023-01-30T03:45:51.396Z,30.18
2023-01-30T03:46:51.336Z,31.07
2023-01-30T03:47:51.312Z,31.46
2023-01-30T03:48:51.295Z,29.71
2023-01-30T03:49:51.277Z,31.77
2023-01-30T03:50:51.261Z,31.02
2023-01-30T03:51:51.264Z,29.89
2023-01-30T03:52:51.235Z,30.77
2023-01-30T03:53:51.212Z,31.26
2023-01-30T03:54:51.173Z,29.00
2023-01-30T03:55:51.149Z,30.05
2023-01-30T03:56:51.127Z,31.85
2023-01-30T03:57:51.084Z,33.35
2023-01-30T03:58:51.066Z,32.73
2023-01-30T03:59:51.030Z,30.65
2023-01-30T04:00:51.099Z,30.51
2023-01-30T04:01:50.975Z,30.27
2023-01-30T04:02:50.970Z,31.83
2023-01-30T04:03:50.955Z,31.77
2023-01-30T04:04:50.945Z,32.27
2023-01-30T04:05:50.931Z,30.75
2023-01-30T04:06:50.943Z,31.02
2023-01-30T04:07:50.899Z,31.51
2023-01-30T04:08:50.886Z,30.43
2023-01-30T04:09:50.868Z,30.38
2023-01-30T04:10:50.843Z,32.06
2023-01-30T04:11:50.835Z,32.50
2023-01-30T04:12:50.826Z,30.55
2023-01-30T04:13:50.819Z,31.20
2023-01-30T04:14:50.788Z,30.95
2023-01-30T04:15:50.774Z,31.65
2023-01-30T04:16:50.821Z,29.56
2023-01-30T04:17:50.747Z,30.89
2023-01-30T04:18:50.724Z,30.88
2023-01-30T04:19:50.711Z,31.87
2023-01-30T04:20:50.698Z,32.68
2023-01-30T04:21:50.714Z,31.03
2023-01-30T04:22:50.665Z,33.14
2023-01-30T04:23:50.638Z,32.81
2023-01-30T04:24:50.618Z,31.57
2023-01-30T04:25:50.603Z,33.11
2023-01-30T04:26:50.585Z,32.74
2023-01-30T04:27:50.563Z,31.17
2023-01-30T04:28:50.551Z,32.91
2023-01-30T04:29:50.539Z,30.57
2023-01-30T04:30:50.580Z,31.97
2023-01-30T04:31:50.520Z,32.54
2023-01-30T04:32:50.536Z,31.74
2023-01-30T04:33:50.505Z,32.79
2023-01-30T04:34:50.491Z,31.27
2023-01-30T04:35:50.479Z,31.59
2023-01-30T04:36:50.475Z,31.34
2023-01-30T04:37:50.486Z,31.93
2023-01-30T04:38:50.447Z,33.19
2023-01-30T04:39:50.432Z,33.66
2023-01-30T04:40:50.417Z,33.35
2023-01-30T04:41:50.402Z,32.70
2023-01-30T04:42:51.040Z,32.55
2023-01-30T04:43:50.367Z,34.25
2023-01-30T04:44:50.339Z,33.05
2023-01-30T04:45:50.323Z,33.13
2023-01-30T04:46:50.309Z,33.47
2023-01-30T04:47:50.359Z,32.76
2023-01-30T04:48:50.313Z,34.44
2023-01-30T04:49:50.272Z,33.36
2023-01-30T04:50:50.253Z,33.28
2023-01-30T04:51:50.243Z,32.52
2023-01-30T04:52:50.227Z,33.99
2023-01-30T04:53:50.218Z,33.92
2023-01-30T04:54:50.203Z,32.38
2023-01-30T04:55:50.186Z,32.85
2023-01-30T04:56:50.173Z,32.91
2023-01-30T04:57:50.167Z,32.64
2023-01-30T04:58:50.167Z,31.26
2023-01-30T04:59:50.149Z,32.39
2023-01-30T05:00:50.195Z,32.10
2023-01-30T05:01:50.217Z,33.41
2023-01-30T05:02:50.116Z,34.21
2023-01-30T05:03:50.110Z,33.57
2023-01-30T05:04:50.132Z,33.95
2023-01-30T05:05:50.086Z,33.91
2023-01-30T05:06:50.069Z,32.36
2023-01-30T05:07:50.042Z,34.99
2023-01-30T05:08:50.044Z,32.98
2023-01-30T05:09:50.007Z,33.46
2023-01-30T05:10:50.003Z,35.17
2023-01-30T05:11:49.978Z,33.01
2023-01-30T05:12:49.958Z,34.25
2023-01-30T05:13:49.929Z,35.36
2023-01-30T05:14:49.919Z,33.18
2023-01-30T05:15:49.868Z,33.96
2023-01-30T05:16:49.882Z,33.76
2023-01-30T05:17:49.821Z,32.84
2023-01-30T05:18:49.792Z,33.80
2023-01-30T05:19:49.768Z,31.95
2023-01-30T05:20:49.780Z,33.26
2023-01-30T05:21:49.750Z,34.49
2023-01-30T05:22:49.733Z,32.60
2023-01-30T05:23:49.740Z,33.87
2023-01-30T05:24:49.711Z,33.33
2023-01-30T05:25:49.697Z,33.65
2023-01-30T05:26:49.688Z,32.68
2023-01-30T05:27:49.662Z,33.82
2023-01-30T05:28:49.722Z,33.82
2023-01-30T05:29:49.624Z,35.20
2023-01-30T05:30:49.651Z,34.27
2023-01-30T05:31:49.659Z,34.28
2023-01-30T05:32:49.571Z,33.75
2023-01-30T05:33:49.568Z,34.09
2023-01-30T05:34:49.557Z,35.01
2023-01-30T05:35:49.534Z,34.24
2023-01-30T05:36:49.588Z,35.01
2023-01-30T05:37:49.500Z,34.18
2023-01-30T05:38:49.518Z,33.90
2023-01-30T05:39:49.483Z,33.61
2023-01-30T05:40:49.471Z,33.56
2023-01-30T05:41:49.455Z,33.22
2023-01-30T05:42:49.459Z,35.35
2023-01-30T05:43:49.412Z,34.44
2023-01-30T05:44:49.372Z,36.06
2023-01-30T05:45:49.342Z,36.48
2023-01-30T05:46:49.335Z,35.42
2023-01-30T05:47:49.294Z,36.18
2023-01-30T05:48:49.338Z,34.52
2023-01-30T05:49:49.280Z,35.76
2023-01-30T05:50:49.248Z,34.78
2023-01-30T05:51:51.284Z,35.54
2023-01-30T05:52:49.219Z,35.76
2023-01-30T05:53:49.166Z,36.13
2023-01-30T05:54:49.158Z,36.56
2023-01-30T05:55:49.138Z,36.24
2023-01-30T05:56:49.116Z,37.21
2023-01-30T05:57:49.101Z,36.68
2023-01-30T05:58:49.087Z,36.03
2023-01-30T05:59:49.072Z,37.04
2023-01-30T06:00:49.051Z,37.06
2023-01-30T06:01:49.037Z,35.25
2023-01-30T06:02:49.029Z,37.03
2023-01-30T06:03:49.134Z,37.08
2023-01-30T06:04:49.152Z,35.84
2023-01-30T06:05:48.945Z,37.63
2023-01-30T06:06:48.924Z,36.78
2023-01-30T06:07:48.918Z,37.69
2023-01-30T06:08:48.914Z,38.49
2023-01-30T06:09:48.880Z,36.92
2023-01-30T06:10:48.855Z,36.96
2023-01-30T06:11:48.840Z,37.67
2023-01-30T06:12:48.826Z,36.28
2023-01-30T06:13:48.815Z,37.52
2023-01-30T06:14:48.774Z,37.83
2023-01-30T06:15:48.843Z,35.29
2023-01-30T06:16:48.790Z,37.32
2023-01-30T06:17:49.121Z,38.36
2023-01-30T06:18:48.712Z,37.40
2023-01-30T06:19:48.710Z,35.18
2023-01-30T06:20:48.661Z,36.66
2023-01-30T06:21:48.648Z,37.01
2023-01-30T06:22:49.112Z,38.40
2023-01-30T06:23:48.615Z,39.11
2023-01-30T06:24:48.612Z,38.80
2023-01-30T06:25:48.577Z,39.64
2023-01-30T06:26:48.593Z,40.02
2023-01-30T06:27:48.568Z,39.61
2023-01-30T06:28:48.511Z,42.60
2023-01-30T06:29:48.495Z,41.75
2023-01-30T06:30:48.635Z,42.13
2023-01-30T06:31:48.475Z,43.57
2023-01-30T06:32:48.425Z,43.32
2023-01-30T06:33:48.589Z,45.83
2023-01-30T06:34:48.384Z,45.42
2023-01-30T06:35:48.374Z,44.41
2023-01-30T06:36:48.361Z,45.72
2023-01-30T06:37:49.084Z,47.06
2023-01-30T06:38:48.591Z,47.53
2023-01-30T06:39:48.280Z,49.79
2023-01-30T06:40:48.287Z,50.13
2023-01-30T06:41:48.589Z,50.30
2023-01-30T06:42:48.227Z,50.86
2023-01-30T06:43:48.207Z,53.05
2023-01-30T06:44:48.602Z,51.93
2023-01-30T06:45:48.666Z,54.71
2023-01-30T06:46:48.155Z,55.33
2023-01-30T06:47:48.124Z,56.35
2023-01-30T06:48:48.116Z,57.97
2023-01-30T06:49:48.593Z,58.24
2023-01-30T06:50:48.141Z,63.09
2023-01-30T06:51:48.084Z,64.15
2023-01-30T06:52:48.044Z,66.08
2023-01-30T06:53:48.024Z,67.71
2023-01-30T06:54:48.100Z,69.50
2023-01-30T06:55:48.243Z,77.14
2023-01-30T06:56:48.005Z,83.04
2023-01-30T06:57:48.094Z,84.56
2023-01-30T06:58:48.168Z,87.65
2023-01-30T06:59:47.938Z,84.32
2023-01-30T07:00:48.092Z,83.55
2023-01-30T07:01:47.946Z,92.13
2023-01-30T07:02:47.908Z,104.57
2023-01-30T07:03:47.923Z,113.85
2023-01-30T07:04:48.865Z,121.34
2023-01-30T07:05:48.103Z,135.47
2023-01-30T07:06:47.786Z,142.42
2023-01-30T07:07:47.759Z,150.08
2023-01-30T07:08:47.727Z,159.37
2023-01-30T07:09:53.308Z,185.11
2023-01-30T07:10:48.135Z,185.90
2023-01-30T07:11:48.115Z,186.06
2023-01-30T07:12:47.707Z,188.02
2023-01-30T07:13:47.629Z,193.97
2023-01-30T07:14:47.610Z,202.55
2023-01-30T07:15:47.584Z,216.43
2023-01-30T07:16:47.681Z,224.41
2023-01-30T07:17:47.551Z,227.90
2023-01-30T07:18:47.547Z,228.82
2023-01-30T07:19:47.518Z,238.09
2023-01-30T07:20:47.478Z,243.27
2023-01-30T07:21:47.456Z,246.54
2023-01-30T07:22:47.430Z,249.28
2023-01-30T07:23:47.410Z,247.40
2023-01-30T07:24:47.617Z,246.56
2023-01-30T07:25:47.367Z,247.20
2023-01-30T07:26:47.757Z,250.00
2023-01-30T07:27:47.275Z,247.15
2023-01-30T07:28:47.264Z,248.48
2023-01-30T07:29:47.213Z,247.76
2023-01-30T07:30:47.263Z,249.48
2023-01-30T07:31:47.689Z,249.02
2023-01-30T07:32:47.096Z,250.00
2023-01-30T07:33:47.056Z,246.43
2023-01-30T07:34:47.038Z,247.01
2023-01-30T07:35:47.150Z,247.09
2023-01-30T07:36:47.228Z,247.24
2023-01-30T07:37:46.981Z,250.26
2023-01-30T07:38:46.899Z,247.44
2023-01-30T07:39:47.120Z,247.45
2023-01-30T07:40:46.820Z,248.36
2023-01-30T07:41:47.113Z,249.99
2023-01-30T07:42:46.755Z,245.92
2023-01-30T07:43:46.723Z,248.40
2023-01-30T07:44:46.712Z,246.77
2023-01-30T07:45:47.045Z,242.13
2023-01-30T07:46:48.189Z,243.71
2023-01-30T07:47:46.653Z,242.54
2023-01-30T07:48:46.608Z,238.92
2023-01-30T07:49:46.606Z,235.79
2023-01-30T07:50:46.541Z,228.05
2023-01-30T07:51:46.614Z,226.32
2023-01-30T07:52:46.498Z,211.26
2023-01-30T07:53:46.653Z,196.71
2023-01-30T07:54:49.922Z,192.97
2023-01-30T07:55:46.963Z,193.47
2023-01-30T07:56:47.153Z,194.54
2023-01-30T07:57:46.849Z,195.85
2023-01-30T07:58:46.624Z,199.14
2023-01-30T07:59:46.816Z,201.18
2023-01-30T08:00:47.304Z,196.77
2023-01-30T08:01:46.687Z,195.94
2023-01-30T08:02:46.704Z,199.25
2023-01-30T08:03:46.422Z,203.66
2023-01-30T08:04:46.554Z,204.93
2023-01-30T08:05:46.810Z,206.34
2023-01-30T08:06:46.512Z,208.63
2023-01-30T08:07:46.388Z,211.75
2023-01-30T08:08:46.678Z,213.01
2023-01-30T08:09:46.606Z,220.04
2023-01-30T08:10:46.320Z,219.29
2023-01-30T08:11:46.104Z,224.70
2023-01-30T08:12:46.241Z,225.84
2023-01-30T08:13:46.460Z,228.35
2023-01-30T08:14:46.254Z,232.59
2023-01-30T08:15:46.708Z,236.34
2023-01-30T08:16:46.484Z,239.15
2023-01-30T08:17:46.606Z,241.72
2023-01-30T08:18:45.967Z,245.31
2023-01-30T08:19:46.175Z,246.15
2023-01-30T08:20:45.980Z,248.39
2023-01-30T08:21:45.654Z,248.53
2023-01-30T08:22:45.630Z,249.94
2023-01-30T08:23:45.449Z,248.20
2023-01-30T08:24:45.409Z,250.00
2023-01-30T08:25:45.380Z,250.00
2023-01-30T08:26:45.418Z,250.00
2023-01-30T08:27:45.318Z,249.31
2023-01-30T08:28:45.295Z,247.85
2023-01-30T08:29:45.260Z,246.33
2023-01-30T08:30:45.299Z,245.02
2023-01-30T08:31:45.247Z,242.68
2023-01-30T08:32:45.727Z,240.56
2023-01-30T08:33:45.494Z,240.09
2023-01-30T08:34:45.080Z,238.48
2023-01-30T08:35:45.048Z,235.60
2023-01-30T08:36:45.018Z,233.29
2023-01-30T08:37:46.127Z,225.30
2023-01-30T08:38:44.975Z,189.69
2023-01-30T08:39:44.952Z,141.70
2023-01-30T08:40:44.929Z,156.20
2023-01-30T08:41:44.921Z,165.05
2023-01-30T08:42:45.157Z,175.97
2023-01-30T08:43:44.896Z,180.68
2023-01-30T08:44:44.864Z,177.53
2023-01-30T08:45:44.839Z,172.07
2023-01-30T08:46:45.209Z,171.85
2023-01-30T08:47:44.783Z,164.29
2023-01-30T08:48:50.040Z,164.16
2023-01-30T08:49:44.741Z,164.47
2023-01-30T08:50:45.142Z,165.51
2023-01-30T08:51:44.688Z,164.58
2023-01-30T08:52:44.666Z,147.62
2023-01-30T08:53:44.802Z,117.85
2023-01-30T08:54:44.620Z,129.70
2023-01-30T08:55:44.640Z,137.84
2023-01-30T08:56:44.578Z,154.24
2023-01-30T08:57:44.642Z,148.02
2023-01-30T08:58:44.741Z,142.83
2023-01-30T08:59:44.521Z,140.25
2023-01-30T09:00:44.499Z,138.11
2023-01-30T09:01:44.473Z,138.77
2023-01-30T09:02:45.758Z,137.60
2023-01-30T09:03:44.433Z,140.44
2023-01-30T09:04:44.430Z,141.79
2023-01-30T09:05:44.383Z,144.39
2023-01-30T09:06:44.351Z,143.07
2023-01-30T09:07:44.649Z,142.83
2023-01-30T09:08:44.298Z,144.02
2023-01-30T09:09:44.267Z,146.77
2023-01-30T09:10:44.240Z,147.67
2023-01-30T09:11:44.324Z,149.88
2023-01-30T09:12:44.755Z,147.18
2023-01-30T09:13:44.340Z,153.68
2023-01-30T09:14:44.115Z,153.63
2023-01-30T09:15:44.213Z,152.88
2023-01-30T09:16:44.143Z,153.60
2023-01-30T09:17:44.152Z,159.73
2023-01-30T09:18:44.009Z,157.22
2023-01-30T09:19:44.178Z,158.09
2023-01-30T09:20:43.967Z,161.66
2023-01-30T09:21:43.934Z,160.07
2023-01-30T09:22:43.873Z,159.86
2023-01-30T09:23:43.915Z,157.50
2023-01-30T09:24:44.312Z,158.04
2023-01-30T09:25:43.780Z,161.00
2023-01-30T09:26:43.795Z,160.04
2023-01-30T09:27:43.699Z,162.17
2023-01-30T09:28:44.114Z,163.73
2023-01-30T09:29:45.395Z,165.81
2023-01-30T09:30:43.652Z,168.46
2023-01-30T09:31:43.628Z,173.77
2023-01-30T09:32:43.528Z,168.22
2023-01-30T09:33:43.581Z,171.14
2023-01-30T09:34:43.449Z,168.18
2023-01-30T09:35:43.428Z,173.66
2023-01-30T09:36:43.405Z,174.90
2023-01-30T09:37:43.654Z,177.06
2023-01-30T09:38:43.313Z,177.54
2023-01-30T09:39:43.282Z,179.54
2023-01-30T09:40:43.263Z,180.11
2023-01-30T09:41:43.226Z,181.44
2023-01-30T09:42:43.664Z,184.49
2023-01-30T09:43:43.190Z,185.78
2023-01-30T09:44:43.165Z,187.17
2023-01-30T09:45:43.100Z,186.56
2023-01-30T09:46:43.175Z,190.25
2023-01-30T09:47:43.021Z,190.50
2023-01-30T09:48:46.173Z,190.72
2023-01-30T09:49:42.948Z,190.98
2023-01-30T09:50:42.922Z,191.57
2023-01-30T09:51:43.162Z,193.83
2023-01-30T09:52:42.886Z,193.65
2023-01-30T09:53:43.390Z,196.38
2023-01-30T09:54:43.050Z,201.39
2023-01-30T09:55:43.223Z,203.84
2023-01-30T09:56:42.754Z,203.75
2023-01-30T09:57:42.708Z,202.66
2023-01-30T09:58:42.692Z,204.59
2023-01-30T09:59:42.623Z,206.30
2023-01-30T10:00:42.735Z,209.81
2023-01-30T10:01:42.559Z,209.04
2023-01-30T10:02:42.525Z,208.60
2023-01-30T10:03:42.527Z,208.93
2023-01-30T10:04:59.052Z,207.52
2023-01-30T10:05:42.415Z,207.80
2023-01-30T10:06:42.666Z,208.86
2023-01-30T10:07:42.373Z,210.03
2023-01-30T10:08:42.327Z,212.30
2023-01-30T10:09:42.716Z,212.23
2023-01-30T10:10:42.244Z,213.55
2023-01-30T10:11:43.223Z,216.16
2023-01-30T10:12:42.185Z,218.68
2023-01-30T10:13:42.148Z,216.99
2023-01-30T10:14:42.127Z,217.20
2023-01-30T10:15:42.255Z,220.41
2023-01-30T10:16:42.033Z,220.30
2023-01-30T10:17:42.005Z,222.74
2023-01-30T10:18:41.989Z,220.59
2023-01-30T10:19:41.927Z,223.61
2023-01-30T10:20:41.889Z,228.51
2023-01-30T10:21:42.173Z,223.53
2023-01-30T10:22:41.793Z,226.11
2023-01-30T10:23:41.797Z,229.49
2023-01-30T10:24:41.760Z,231.83
2023-01-30T10:25:42.210Z,235.39
2023-01-30T10:26:41.848Z,235.47
2023-01-30T10:27:41.622Z,236.92
2023-01-30T10:28:42.244Z,234.92
2023-01-30T10:29:41.551Z,237.81
2023-01-30T10:30:41.727Z,236.82
2023-01-30T10:31:41.575Z,237.42
2023-01-30T10:32:41.466Z,232.11
2023-01-30T10:33:41.437Z,231.39
2023-01-30T10:34:41.403Z,229.67
2023-01-30T10:35:41.683Z,229.36
2023-01-30T10:36:41.345Z,221.30
2023-01-30T10:37:41.317Z,221.07
2023-01-30T10:38:41.291Z,215.54
2023-01-30T10:39:54.271Z,211.33
2023-01-30T10:40:41.767Z,211.54
2023-01-30T10:41:41.183Z,211.38
2023-01-30T10:42:41.414Z,197.96
2023-01-30T10:43:42.427Z,190.97
2023-01-30T10:44:41.086Z,187.08
2023-01-30T10:45:41.043Z,180.19
2023-01-30T10:46:41.209Z,175.02
2023-01-30T10:47:47.139Z,170.32
2023-01-30T10:48:43.348Z,170.41
2023-01-30T10:49:41.007Z,170.57
2023-01-30T10:50:41.180Z,167.52
2023-01-30T10:51:40.834Z,160.88
2023-01-30T10:52:40.806Z,154.10
2023-01-30T10:53:40.759Z,150.92
2023-01-30T10:54:41.233Z,149.03
2023-01-30T10:55:40.700Z,149.59
2023-01-30T10:56:40.716Z,150.66
2023-01-30T10:57:40.625Z,151.27
2023-01-30T10:58:40.607Z,152.35
2023-01-30T10:59:40.586Z,150.15
2023-01-30T11:00:40.791Z,149.13
2023-01-30T11:01:40.792Z,144.74
2023-01-30T11:02:40.556Z,146.32
2023-01-30T11:03:40.727Z,146.56
2023-01-30T11:04:40.425Z,145.72
2023-01-30T11:05:40.397Z,152.11
2023-01-30T11:06:40.362Z,154.68
2023-01-30T11:07:40.335Z,151.34
2023-01-30T11:08:40.698Z,152.13
2023-01-30T11:09:40.289Z,151.49
2023-01-30T11:10:40.255Z,153.93
2023-01-30T11:11:40.292Z,149.28
2023-01-30T11:12:40.239Z,149.06
2023-01-30T11:13:40.201Z,147.53
2023-01-30T11:14:41.949Z,149.62
2023-01-30T11:15:40.155Z,147.20
2023-01-30T11:16:40.091Z,150.90
2023-01-30T11:17:40.060Z,148.07
2023-01-30T11:19:42.163Z,146.07
2023-01-30T11:20:39.962Z,146.12
2023-01-30T11:21:44.280Z,146.43
2023-01-30T11:22:40.161Z,146.02
2023-01-30T11:23:40.115Z,146.14
2023-01-30T11:24:40.228Z,145.93
2023-01-30T11:25:40.037Z,144.91
2023-01-30T11:26:47.272Z,145.00
2023-01-30T11:27:39.983Z,145.76
2023-01-30T11:28:39.979Z,145.15
2023-01-30T11:29:40.231Z,145.41
2023-01-30T11:30:39.888Z,143.95
2023-01-30T11:31:41.744Z,143.40
2023-01-30T11:32:39.888Z,145.27
2023-01-30T11:33:39.789Z,145.58
2023-01-30T11:34:40.756Z,141.39
2023-01-30T11:35:40.200Z,143.86
2023-01-30T11:36:39.719Z,139.18
2023-01-30T11:37:39.674Z,136.52
2023-01-30T11:38:39.651Z,138.11
2023-01-30T11:39:39.729Z,138.42
2023-01-30T11:40:39.593Z,136.50
2023-01-30T11:41:39.555Z,135.99
2023-01-30T11:42:40.342Z,137.18
2023-01-30T11:43:39.707Z,137.85
2023-01-30T11:44:39.752Z,134.84
2023-01-30T11:45:39.774Z,134.97
2023-01-30T11:46:39.379Z,134.59
2023-01-30T11:47:41.458Z,132.96
2023-01-30T11:49:35.913Z,133.15
2023-01-30T11:49:50.360Z,133.33
2023-01-30T11:50:41.508Z,133.48
2023-01-30T11:51:39.728Z,133.53
2023-01-30T11:52:39.204Z,134.04
2023-01-30T11:53:39.196Z,133.37
2023-01-30T11:54:39.164Z,133.35
2023-01-30T11:55:39.728Z,132.12
2023-01-30T11:56:39.097Z,133.06
2023-01-30T11:57:39.207Z,131.74
2023-01-30T11:58:39.043Z,129.77
2023-01-30T11:59:39.023Z,130.01
2023-01-30T12:00:39.267Z,128.02
2023-01-30T12:01:38.997Z,129.31
2023-01-30T12:02:38.945Z,128.06
2023-01-30T12:03:38.904Z,126.89
2023-01-30T12:04:38.888Z,128.49
2023-01-30T12:05:39.247Z,126.82
2023-01-30T12:06:38.835Z,125.41
2023-01-30T12:07:38.820Z,124.64
2023-01-30T12:08:42.657Z,124.72
2023-01-30T12:09:40.976Z,124.93
2023-01-30T12:10:39.215Z,125.37
2023-01-30T12:11:39.378Z,20.90
2023-01-30T12:12:38.736Z,0.00
2023-01-30T12:13:38.702Z,21.08
2023-01-30T12:14:38.734Z,25.00
2023-01-30T12:15:39.224Z,30.86
2023-01-30T12:16:38.848Z,47.49
2023-01-30T12:17:38.763Z,46.79
2023-01-30T12:18:39.713Z,49.38
2023-01-30T12:19:39.216Z,44.65
2023-01-30T12:20:39.220Z,51.47
2023-01-30T12:21:38.742Z,54.25
2023-01-30T12:22:38.739Z,60.10
2023-01-30T12:23:38.732Z,61.00
2023-01-30T12:24:38.729Z,62.42
2023-01-30T12:25:38.715Z,62.27
2023-01-30T12:26:38.750Z,64.03
2023-01-30T12:27:38.703Z,64.44
2023-01-30T12:28:38.699Z,62.52
2023-01-30T12:29:40.878Z,65.53
2023-01-30T12:31:10.518Z,96.59
2023-01-30T12:31:38.662Z,97.44
2023-01-30T12:32:38.793Z,98.08
2023-01-30T12:33:38.626Z,102.75
2023-01-30T12:34:38.608Z,107.07
2023-01-30T12:35:39.102Z,120.50
2023-01-30T12:36:38.581Z,126.79
2023-01-30T12:37:38.569Z,131.37
2023-01-30T12:38:38.551Z,124.78
2023-01-30T12:39:38.522Z,126.18
2023-01-30T12:40:38.743Z,130.91
2023-01-30T12:41:38.458Z,135.98
2023-01-30T12:42:38.431Z,134.24
2023-01-30T12:43:38.415Z,138.09
2023-01-30T12:44:38.407Z,146.62
2023-01-30T12:45:38.763Z,146.38
2023-01-30T12:46:38.350Z,151.72
2023-01-30T12:47:38.313Z,150.31
2023-01-30T12:49:38.265Z,153.25
2023-01-30T12:50:38.243Z,154.47
2023-01-30T12:51:38.243Z,156.95
2023-01-30T12:52:38.188Z,158.20
2023-01-30T12:53:38.174Z,161.80
2023-01-30T12:54:38.147Z,163.65
2023-01-30T12:55:38.113Z,164.37
2023-01-30T12:56:38.229Z,164.13
2023-01-30T12:57:38.095Z,165.14
2023-01-30T12:58:38.044Z,163.87
2023-01-30T12:59:38.031Z,164.43
2023-01-30T13:00:38.005Z,163.71
2023-01-30T13:01:38.294Z,166.01
2023-01-30T13:02:38.321Z,164.88
2023-01-30T13:03:37.937Z,163.87
2023-01-30T13:04:46.950Z,162.92
2023-01-30T13:05:38.020Z,163.23
2023-01-30T13:06:37.879Z,163.87
2023-01-30T13:07:38.239Z,163.94
2023-01-30T13:08:37.844Z,164.08
2023-01-30T13:09:37.837Z,163.18
2023-01-30T13:10:38.275Z,163.46
2023-01-30T13:11:37.739Z,162.75
2023-01-30T13:12:37.732Z,161.71
2023-01-30T13:13:37.680Z,160.66
2023-01-30T13:14:37.647Z,160.20
2023-01-30T13:15:37.619Z,159.50
2023-01-30T13:16:37.798Z,158.79
2023-01-30T13:17:37.838Z,158.22
2023-01-30T13:18:37.516Z,158.53
2023-01-30T13:19:41.128Z,157.12
2023-01-30T13:20:37.492Z,157.36
2023-01-30T13:21:37.433Z,157.29
2023-01-30T13:22:37.754Z,157.23
2023-01-30T13:23:37.750Z,155.80
2023-01-30T13:24:37.366Z,154.14
2023-01-30T13:25:37.359Z,155.24
2023-01-30T13:26:37.846Z,153.80
2023-01-30T13:27:37.290Z,152.66
2023-01-30T13:28:37.266Z,152.76
2023-01-30T13:29:37.264Z,151.31
2023-01-30T13:30:37.220Z,150.89
2023-01-30T13:31:37.324Z,151.63
2023-01-30T13:32:37.150Z,149.21
2023-01-30T13:33:37.106Z,148.91